Time;durP1;ratioP1;P1;durP2;ratioP2;P2;SDS_P1;SDS_P2;PMS_P1;PMS_P2;Temp;Humidity;BMP_temperature;BMP_pressure;BME280_temperature;BME280_humidity;BME280_pressure;Samples;Min_cycle;Max_cycle;Signal;HPM_P1;HPM_P2
2023/07/24 00:00:35;;;;;;;13.30;8.50;;;;;14.80;93663.00;;;;7397071;19;20149;-80
2023/07/24 00:03:10;;;;;;;12.38;7.95;;;;;14.90;93657.00;;;;7397305;19;20143;-78
2023/07/24 00:05:39;;;;;;;12.60;8.25;;;;;14.80;93645.00;;;;7397812;19;20166;-79
2023/07/24 00:08:20;;;;;;;11.18;8.00;;;;;14.80;93627.00;;;;7398853;19;20137;-79
2023/07/24 00:10:48;;;;;;;10.00;7.80;;;;;14.90;93641.00;;;;7396924;19;20646;-78
2023/07/24 00:13:30;;;;;;;13.20;8.65;;;;;14.90;93636.00;;;;7395056;19;20520;-78
2023/07/24 00:16:08;;;;;;;13.65;8.90;;;;;15.00;93634.00;;;;7398417;19;20492;-78
2023/07/24 00:18:42;;;;;;;12.38;8.52;;;;;15.00;93631.00;;;;7396569;19;20145;-79
2023/07/24 00:21:10;;;;;;;12.80;8.85;;;;;15.00;93626.00;;;;7395136;19;20604;-77
2023/07/24 00:23:44;;;;;;;11.80;9.00;;;;;15.00;93627.00;;;;7396420;19;20139;-76
2023/07/24 00:26:12;;;;;;;13.75;9.10;;;;;15.00;93628.00;;;;7395911;19;20148;-79
2023/07/24 00:28:46;;;;;;;12.85;9.02;;;;;15.00;93622.00;;;;7397963;19;20211;-79
2023/07/24 00:31:15;;;;;;;12.18;8.43;;;;;15.00;93628.00;;;;7397503;19;20149;-78
2023/07/24 00:33:49;;;;;;;12.45;9.20;;;;;15.10;93618.00;;;;7397317;19;20144;-78
2023/07/24 00:36:17;;;;;;;12.52;8.63;;;;;14.90;93623.00;;;;7395221;19;20151;-78
2023/07/24 00:38:51;;;;;;;12.93;8.70;;;;;14.90;93624.00;;;;7393383;19;20616;-77
2023/07/24 00:41:25;;;;;;;13.73;9.10;;;;;14.90;93615.00;;;;7396193;19;20152;-76
2023/07/24 00:43:53;;;;;;;12.52;9.02;;;;;14.80;93604.00;;;;7396507;19;20136;-76
2023/07/24 00:46:32;;;;;;;12.60;8.60;;;;;14.90;93605.00;;;;7394589;19;20208;-76
2023/07/24 00:49:08;;;;;;;13.50;8.73;;;;;14.80;93601.00;;;;7395234;19;20640;-77
2023/07/24 00:51:37;;;;;;;10.45;7.75;;;;;14.70;93590.00;;;;7396455;19;20573;-76
2023/07/24 00:54:13;;;;;;;11.65;9.00;;;;;14.70;93588.00;;;;7398709;19;20132;-78
2023/07/24 00:56:41;;;;;;;13.52;8.60;;;;;14.60;93591.00;;;;7396956;19;20137;-77
2023/07/24 00:59:16;;;;;;;15.82;8.95;;;;;14.60;93581.00;;;;7397046;19;20215;-79
2023/07/24 01:01:51;;;;;;;11.25;8.75;;;;;14.50;93587.00;;;;7396333;19;20136;-75
2023/07/24 01:04:26;;;;;;;11.70;8.35;;;;;14.50;93583.00;;;;7393743;19;20208;-74
2023/07/24 01:06:54;;;;;;;12.23;8.23;;;;;14.60;93579.00;;;;7397525;19;20600;-75
2023/07/24 01:09:34;;;;;;;11.90;8.00;;;;;14.70;93569.00;;;;7394527;19;20475;-76
2023/07/24 01:12:13;;;;;;;14.90;9.38;;;;;14.60;93568.00;;;;7395117;19;20152;-75
2023/07/24 01:15:02;;;;;;;11.50;8.27;;;;;14.60;93562.00;;;;7396559;19;20143;-74
2023/07/24 01:17:34;;;;;;;10.73;8.10;;;;;14.50;93567.00;;;;7393812;19;20656;-75
2023/07/24 01:20:11;;;;;;;13.63;9.25;;;;;14.60;93565.00;;;;7397604;19;20135;-74
2023/07/24 01:22:54;;;;;;;13.45;8.32;;;;;14.60;93564.00;;;;7395852;19;20162;-74
2023/07/24 01:25:44;;;;;;;11.63;7.60;;;;;14.70;93557.00;;;;7393275;19;20522;-75
2023/07/24 01:28:20;;;;;;;13.18;9.18;;;;;14.70;93551.00;;;;7395103;19;20750;-76
2023/07/24 01:30:47;;;;;;;10.30;8.02;;;;;14.70;93557.00;;;;7395044;19;20162;-74
2023/07/24 01:33:22;;;;;;;11.88;8.52;;;;;14.70;93553.00;;;;7394630;19;20158;-75
2023/07/24 01:36:02;;;;;;;10.48;8.30;;;;;14.70;93553.00;;;;7392356;19;20148;-75
2023/07/24 01:38:37;;;;;;;12.90;8.25;;;;;14.60;93551.00;;;;7392998;19;20164;-73
2023/07/24 01:41:11;;;;;;;13.07;8.48;;;;;14.90;93548.00;;;;7396061;19;20151;-75
2023/07/24 01:43:47;;;;;;;10.02;7.85;;;;;14.80;93545.00;;;;7393047;19;20220;-75
2023/07/24 01:46:21;;;;;;;11.35;8.20;;;;;14.80;93542.00;;;;7393192;19;20633;-75
2023/07/24 01:48:56;;;;;;;11.10;8.15;;;;;14.80;93544.00;;;;7393292;19;20129;-76
2023/07/24 01:51:31;;;;;;;12.85;8.30;;;;;14.80;93541.00;;;;7394308;19;20615;-74
2023/07/24 01:54:05;;;;;;;9.75;7.88;;;;;14.80;93536.00;;;;7394341;19;20219;-75
2023/07/24 01:56:43;;;;;;;11.30;7.55;;;;;14.80;93541.00;;;;7393717;19;20216;-77
2023/07/24 01:59:11;;;;;;;11.63;7.75;;;;;14.90;93539.00;;;;7391356;19;20482;-75
2023/07/24 02:01:45;;;;;;;11.70;7.32;;;;;15.00;93528.00;;;;7392494;19;20174;-75
2023/07/24 02:04:22;;;;;;;10.88;7.65;;;;;14.90;93535.00;;;;7392807;19;20148;-73
2023/07/24 02:06:56;;;;;;;13.90;8.15;;;;;15.10;93526.00;;;;7393533;19;20152;-75
2023/07/24 02:09:24;;;;;;;11.65;6.68;;;;;14.80;93524.00;;;;7401353;19;20128;-76
2023/07/24 02:12:05;;;;;;;9.55;6.88;;;;;14.90;93518.00;;;;7400588;19;20208;-72
2023/07/24 02:14:39;;;;;;;12.07;7.70;;;;;14.90;93513.00;;;;7402043;19;20161;-79
2023/07/24 02:17:07;;;;;;;12.60;7.85;;;;;15.00;93508.00;;;;7400574;19;20137;-77
2023/07/24 02:19:45;;;;;;;10.82;7.43;;;;;15.10;93498.00;;;;7401145;19;20550;-77
2023/07/24 02:22:13;;;;;;;11.77;7.97;;;;;15.10;93503.00;;;;7400094;19;20169;-78
2023/07/24 02:24:47;;;;;;;10.20;7.80;;;;;15.10;93500.00;;;;7399581;19;20149;-78
2023/07/24 02:27:26;;;;;;;10.65;7.47;;;;;15.10;93494.00;;;;7402674;19;20158;-78
2023/07/24 02:30:02;;;;;;;11.95;7.43;;;;;15.10;93492.00;;;;7400127;19;20492;-79
2023/07/24 02:32:32;;;;;;;11.82;7.10;;;;;15.20;93492.00;;;;7399869;19;20152;-76
2023/07/24 02:35:07;;;;;;;11.70;7.20;;;;;15.20;93489.00;;;;7401310;19;20510;-78
2023/07/24 02:37:35;;;;;;;11.95;7.03;;;;;15.20;93496.00;;;;7398640;19;20495;-77
2023/07/24 02:40:10;;;;;;;15.27;7.90;;;;;15.20;93505.00;;;;7398935;19;20150;-76
2023/07/24 02:42:37;;;;;;;8.70;6.95;;;;;15.40;93505.00;;;;7400332;19;20146;-77
2023/07/24 02:45:12;;;;;;;12.35;6.95;;;;;15.40;93484.00;;;;7399497;19;20144;-77
2023/07/24 02:47:40;;;;;;;11.25;8.23;;;;;15.50;93473.00;;;;7399541;19;20149;-77
2023/07/24 02:50:14;;;;;;;11.27;7.30;;;;;15.20;93463.00;;;;7399066;19;20181;-78
2023/07/24 02:52:48;;;;;;;10.70;7.32;;;;;15.00;93460.00;;;;7400594;19;20170;-76
2023/07/24 02:55:17;;;;;;;15.60;7.07;;;;;15.20;93461.00;;;;7398362;19;20276;-77
2023/07/24 02:57:51;;;;;;;10.18;6.88;;;;;15.20;93475.00;;;;7398407;19;20142;-78
2023/07/24 03:00:25;;;;;;;9.02;6.55;;;;;15.20;93468.00;;;;7400400;19;20188;-80
2023/07/24 03:03:01;;;;;;;10.27;7.72;;;;;15.30;93462.00;;;;7400917;19;20132;-80
2023/07/24 03:05:29;;;;;;;10.55;6.97;;;;;15.10;93458.00;;;;7399056;19;20996;-78
2023/07/24 03:07:56;;;;;;;9.77;7.15;;;;;14.90;93468.00;;;;7401591;19;20589;-79
2023/07/24 03:10:36;;;;;;;12.00;7.57;;;;;14.70;93479.00;;;;7398043;19;20172;-81
2023/07/24 03:13:10;;;;;;;9.50;7.13;;;;;14.80;93476.00;;;;7400069;19;20480;-78
2023/07/24 03:15:56;;;;;;;12.00;7.43;;;;;14.80;93465.00;;;;7399457;19;20141;-79
2023/07/24 03:18:30;;;;;;;9.60;7.15;;;;;14.60;93472.00;;;;7398009;19;20140;-80
2023/07/24 03:20:59;;;;;;;10.23;7.60;;;;;14.50;93469.00;;;;7398761;19;20585;-78
2023/07/24 03:23:33;;;;;;;11.50;7.85;;;;;14.60;93467.00;;;;7400189;19;20132;-74
2023/07/24 03:26:07;;;;;;;14.45;8.38;;;;;14.70;93466.00;;;;7397591;19;20137;-74
2023/07/24 03:28:41;;;;;;;11.63;7.43;;;;;14.70;93457.00;;;;7401070;19;20584;-76
2023/07/24 03:31:09;;;;;;;10.05;7.97;;;;;14.60;93468.00;;;;7401300;19;20589;-74
2023/07/24 03:33:43;;;;;;;11.10;7.97;;;;;14.60;93475.00;;;;7399174;19;20152;-73
2023/07/24 03:36:11;;;;;;;11.95;7.88;;;;;14.50;93484.00;;;;7398941;19;20264;-74
2023/07/24 03:38:39;;;;;;;12.95;7.68;;;;;14.80;93477.00;;;;7397599;19;20688;-75
2023/07/24 03:41:13;;;;;;;10.55;7.47;;;;;14.90;93474.00;;;;7397487;19;20729;-75
2023/07/24 03:43:41;;;;;;;11.75;8.05;;;;;14.90;93475.00;;;;7398352;19;20178;-75
2023/07/24 03:46:15;;;;;;;12.38;7.15;;;;;14.90;93468.00;;;;7398145;19;20466;-77
2023/07/24 03:48:43;;;;;;;9.48;6.50;;;;;15.10;93468.00;;;;7397033;19;20145;-76
2023/07/24 03:51:17;;;;;;;9.77;7.10;;;;;15.10;93466.00;;;;7397643;19;20523;-74
2023/07/24 03:53:45;;;;;;;10.20;7.38;;;;;15.50;93467.00;;;;7400512;19;20157;-74
2023/07/24 03:56:20;;;;;;;11.65;7.85;;;;;15.50;93478.00;;;;7395999;19;20562;-75
2023/07/24 03:58:55;;;;;;;12.18;7.30;;;;;15.60;93474.00;;;;7397105;19;20143;-73
2023/07/24 04:01:29;;;;;;;10.90;6.88;;;;;15.70;93472.00;;;;7397702;19;20174;-76
2023/07/24 04:04:06;;;;;;;9.13;7.10;;;;;15.80;93457.00;;;;7398102;19;20128;-75
2023/07/24 04:06:40;;;;;;;11.15;7.03;;;;;15.80;93445.00;;;;7397615;19;20141;-76
2023/07/24 04:09:08;;;;;;;9.43;6.90;;;;;15.80;93447.00;;;;7399022;19;20514;-77
2023/07/24 04:11:56;;;;;;;8.98;6.78;;;;;15.70;93440.00;;;;7396390;19;20167;-74
2023/07/24 04:14:30;;;;;;;11.52;7.28;;;;;15.80;93438.00;;;;7397817;19;20634;-77
2023/07/24 04:17:04;;;;;;;13.38;7.38;;;;;15.80;93434.00;;;;7398958;19;20469;-75
2023/07/24 04:19:38;;;;;;;11.45;6.22;;;;;15.70;93439.00;;;;7397868;19;20125;-74
2023/07/24 04:22:06;;;;;;;11.95;6.97;;;;;15.70;93448.00;;;;7397624;19;20160;-74
2023/07/24 04:24:41;;;;;;;10.35;7.03;;;;;16.00;93438.00;;;;7397716;19;20687;-76
2023/07/24 04:27:15;;;;;;;10.77;7.45;;;;;16.10;93434.00;;;;7395763;19;20139;-76
2023/07/24 04:29:50;;;;;;;11.82;6.82;;;;;16.10;93424.00;;;;7398119;19;20950;-74
2023/07/24 04:32:26;;;;;;;9.20;6.72;;;;;16.20;93420.00;;;;7395710;19;20132;-76
2023/07/24 04:35:03;;;;;;;11.07;7.28;;;;;16.20;93414.00;;;;7399565;19;20137;-74
2023/07/24 04:37:37;;;;;;;10.70;7.40;;;;;16.20;93414.00;;;;7397160;19;20188;-75
2023/07/24 04:40:05;;;;;;;13.65;6.63;;;;;16.30;93409.00;;;;7395738;19;20212;-74
2023/07/24 04:42:42;;;;;;;10.70;7.78;;;;;16.40;93407.00;;;;7396333;19;20626;-74
2023/07/24 04:45:10;;;;;;;12.02;7.25;;;;;16.30;93398.00;;;;7396976;19;20148;-74
2023/07/24 04:47:44;;;;;;;10.13;7.18;;;;;16.30;93404.00;;;;7396095;19;20148;-75
2023/07/24 04:50:18;;;;;;;9.93;7.00;;;;;16.30;93398.00;;;;7396508;19;20606;-75
2023/07/24 04:52:52;;;;;;;9.25;6.22;;;;;16.20;93397.00;;;;7395841;19;20205;-75
2023/07/24 04:55:26;;;;;;;9.20;7.05;;;;;16.00;93395.00;;;;7397865;19;20147;-76
2023/07/24 04:58:03;;;;;;;12.38;7.53;;;;;16.10;93393.00;;;;7397949;19;20144;-74
2023/07/24 05:00:30;;;;;;;10.65;7.05;;;;;16.20;93401.00;;;;7396116;19;20608;-75
2023/07/24 05:03:05;;;;;;;9.93;7.00;;;;;16.30;93384.00;;;;7394059;19;20149;-75
2023/07/24 05:05:33;;;;;;;11.60;7.43;;;;;16.30;93390.00;;;;7398044;19;20503;-73
2023/07/24 05:08:12;;;;;;;9.13;6.93;;;;;16.30;93400.00;;;;7395629;19;20145;-75
2023/07/24 05:10:47;;;;;;;9.55;7.43;;;;;16.40;93419.00;;;;7394348;19;20179;-74
2023/07/24 05:13:22;;;;;;;11.70;7.68;;;;;16.60;93421.00;;;;7368166;19;20159;-75
2023/07/24 05:15:56;;;;;;;11.18;7.05;;;;;16.80;93417.00;;;;7384020;19;20194;-73
2023/07/24 05:18:31;;;;;;;11.18;6.90;;;;;16.80;93423.00;;;;7380605;19;20133;-77
2023/07/24 05:20:59;;;;;;;11.07;7.15;;;;;16.90;93422.00;;;;7381847;19;20145;-74
2023/07/24 05:23:33;;;;;;;10.52;7.40;;;;;16.90;93427.00;;;;7383745;19;20192;-74
2023/07/24 05:26:03;;;;;;;9.82;7.00;;;;;17.00;93429.00;;;;7382369;19;20140;-75
2023/07/24 05:28:37;;;;;;;10.73;7.65;;;;;17.00;93432.00;;;;7384080;19;20151;-74
2023/07/24 05:31:12;;;;;;;9.23;6.50;;;;;17.00;93436.00;;;;7382489;19;20145;-75
2023/07/24 05:33:46;;;;;;;10.88;6.65;;;;;17.40;93437.00;;;;7383871;19;20185;-76
2023/07/24 05:36:14;;;;;;;9.85;6.57;;;;;17.80;93442.00;;;;7381747;19;20214;-76
2023/07/24 05:38:48;;;;;;;10.57;6.07;;;;;18.00;93448.00;;;;7382147;19;20156;-75
2023/07/24 05:41:16;;;;;;;9.25;6.38;;;;;18.20;93451.00;;;;7383776;19;20594;-75
2023/07/24 05:43:51;;;;;;;11.60;7.30;;;;;18.40;93459.00;;;;7389153;19;20628;-74
2023/07/24 05:46:19;;;;;;;8.82;6.40;;;;;18.50;93456.00;;;;7389240;19;20152;-76
2023/07/24 05:48:54;;;;;;;12.63;6.30;;;;;18.70;93439.00;;;;7388819;19;20473;-75
2023/07/24 05:51:28;;;;;;;9.73;6.50;;;;;18.80;93440.00;;;;7389152;19;20518;-75
2023/07/24 05:53:56;;;;;;;12.13;6.90;;;;;18.90;93430.00;;;;7389479;19;20145;-74
2023/07/24 05:56:32;;;;;;;9.50;6.75;;;;;19.20;93434.00;;;;7389185;19;20132;-75
2023/07/24 05:58:59;;;;;;;9.95;6.45;;;;;19.30;93434.00;;;;7389198;19;20484;-75
2023/07/24 06:01:33;;;;;;;11.95;6.90;;;;;19.30;93441.00;;;;7388298;19;20632;-74
2023/07/24 06:04:01;;;;;;;10.00;6.55;;;;;19.30;93441.00;;;;7388008;19;20146;-75
2023/07/24 06:06:36;;;;;;;10.05;6.95;;;;;19.40;93441.00;;;;7389335;19;20148;-77
2023/07/24 06:09:04;;;;;;;9.50;6.40;;;;;19.50;93441.00;;;;7388999;19;20157;-76
2023/07/24 06:11:45;;;;;;;8.50;6.63;;;;;19.40;93443.00;;;;7384343;19;20175;-74
2023/07/24 06:14:12;;;;;;;9.43;6.82;;;;;19.50;93446.00;;;;7385634;19;20649;-76
2023/07/24 06:16:47;;;;;;;12.27;6.53;;;;;19.60;93428.00;;;;7389043;19;20611;-74
2023/07/24 06:19:16;;;;;;;13.30;6.25;;;;;19.60;93437.00;;;;7388522;19;20170;-76
2023/07/24 06:21:50;;;;;;;9.02;6.65;;;;;19.70;93428.00;;;;7387484;19;20152;-75
2023/07/24 06:24:18;;;;;;;9.48;6.30;;;;;19.90;93428.00;;;;7386149;19;20173;-75
2023/07/24 06:26:46;;;;;;;11.50;7.25;;;;;19.90;93430.00;;;;7388094;19;20146;-74
2023/07/24 06:29:22;;;;;;;9.20;6.70;;;;;20.00;93427.00;;;;7390730;19;20139;-76
2023/07/24 06:31:56;;;;;;;11.15;6.38;;;;;20.20;93423.00;;;;7388812;19;20195;-74
2023/07/24 06:34:30;;;;;;;10.05;6.40;;;;;20.40;93425.00;;;;7384703;19;20136;-77
2023/07/24 06:37:04;;;;;;;9.45;6.40;;;;;20.40;93409.00;;;;7388101;19;20480;-77
2023/07/24 06:39:49;;;;;;;11.68;6.63;;;;;20.50;93401.00;;;;7386514;19;20488;-75
2023/07/24 06:42:17;;;;;;;10.30;6.22;;;;;20.40;93400.00;;;;7387236;19;20159;-74
2023/07/24 06:44:51;;;;;;;9.77;6.78;;;;;20.30;93397.00;;;;7389687;19;20148;-74
2023/07/24 06:47:26;;;;;;;9.50;6.50;;;;;20.40;93393.00;;;;7386558;19;20141;-73
2023/07/24 06:50:02;;;;;;;7.55;6.05;;;;;20.40;93388.00;;;;7386433;19;20169;-75
2023/07/24 06:52:36;;;;;;;8.88;6.65;;;;;20.70;93393.00;;;;7387550;19;20137;-81
2023/07/24 06:55:10;;;;;;;10.55;7.07;;;;;20.70;93396.00;;;;7383651;19;20163;-81
2023/07/24 06:57:44;;;;;;;11.48;6.32;;;;;20.80;93391.00;;;;7387320;19;20159;-78
2023/07/24 07:00:13;;;;;;;7.70;6.00;;;;;20.60;93403.00;;;;7386895;19;20152;-80
2023/07/24 07:02:47;;;;;;;8.38;5.95;;;;;20.80;93398.00;;;;7386833;19;20187;-79
2023/07/24 07:05:21;;;;;;;11.10;6.10;;;;;20.80;93399.00;;;;7390405;19;20157;-81
2023/07/24 07:07:55;;;;;;;9.45;6.40;;;;;21.10;93393.00;;;;7382553;19;20163;-83
2023/07/24 07:10:23;;;;;;;11.10;6.38;;;;;21.40;93391.00;;;;7384496;19;20129;-81
2023/07/24 07:13:08;;;;;;;9.65;5.90;;;;;21.50;93410.00;;;;7385849;19;20128;-83
2023/07/24 07:15:36;;;;;;;9.90;6.55;;;20.50;1.00;21.50;93367.00;;;;7386725;19;20177;-77
2023/07/24 07:18:10;;;;;;;10.52;6.25;;;20.70;1.00;21.40;93403.00;;;;7385496;19;20156;-80
2023/07/24 07:20:38;;;;;;;10.30;6.07;;;20.60;1.00;21.20;93386.00;;;;7385722;19;20175;-80
2023/07/24 07:23:11;;;;;;;9.93;6.05;;;20.50;1.00;21.00;93401.00;;;;7385973;19;20578;-80
2023/07/24 07:25:38;;;;;;;11.77;5.82;;;20.30;1.00;20.80;93395.00;;;;7385759;19;20184;-79
2023/07/24 07:28:13;;;;;;;8.68;6.38;;;20.10;28.60;20.50;93423.00;;;;7384841;19;20169;-79
2023/07/24 07:30:42;;;;;;;8.88;6.57;;;19.80;99.90;20.50;93421.00;;;;7386246;19;20140;-79
2023/07/24 07:33:15;;;;;;;9.05;5.93;;;19.60;99.90;20.30;93408.00;;;;7385801;19;20141;-81
2023/07/24 07:35:43;;;;;;;10.20;6.18;;;19.40;99.90;20.20;93408.00;;;;7386775;19;20156;-78
2023/07/24 07:38:16;;;;;;;12.15;6.40;;;19.30;99.90;20.10;93447.00;;;;7390832;19;20157;-82
2023/07/24 07:40:43;;;;;;;12.30;6.47;;;19.20;99.90;20.00;93443.00;;;;7386720;19;20163;-79
2023/07/24 07:43:17;;;;;;;8.70;6.28;;;19.10;99.90;19.90;93473.00;;;;7383374;19;20595;-78
2023/07/24 07:45:46;;;;;;;9.43;6.30;;;19.00;99.90;19.70;93464.00;;;;7384511;19;20173;-81
2023/07/24 07:48:20;;;;;;;8.88;6.18;;;18.90;1.00;19.50;93484.00;;;;7383959;19;20152;-80
2023/07/24 07:50:54;;;;;;;10.30;7.13;;;18.70;1.00;19.00;93486.00;;;;7384245;19;20121;-77
2023/07/24 07:53:21;;;;;;;10.25;6.40;;;18.40;1.00;18.50;93500.00;;;;7382947;19;20140;-77
2023/07/24 07:56:01;;;;;;;10.25;7.28;;;18.10;99.90;18.00;93493.00;;;;7383068;19;20616;-78
2023/07/24 07:58:30;;;;;;;11.18;7.55;;;17.70;1.00;17.40;93527.00;;;;7386764;19;20159;-79
2023/07/24 08:01:05;;;;;;;11.38;6.97;;;17.30;99.90;17.20;93519.00;;;;7386798;19;20184;-82
2023/07/24 08:03:39;;;;;;;10.68;6.95;;;17.00;98.70;17.10;93494.00;;;;7386308;19;20607;-77
2023/07/24 08:06:13;;;;;;;12.63;7.72;;;16.70;1.00;16.90;93483.00;;;;7385717;19;20129;-79
2023/07/24 08:08:41;;;;;;;8.90;6.82;;;16.60;1.00;16.60;93456.00;;;;7387696;19;20146;-77
2023/07/24 08:11:14;;;;;;;10.95;7.30;;;16.40;99.90;16.80;93426.00;;;;7386285;19;20195;-74
2023/07/24 08:13:48;;;;;;;11.45;8.02;;;16.30;1.00;16.70;93451.00;;;;7386657;19;20231;-76
2023/07/24 08:16:22;;;;;;;11.25;8.25;;;16.30;1.00;16.70;93419.00;;;;7387614;19;20133;-73
2023/07/24 08:18:57;;;;;;;9.82;7.70;;;16.40;99.90;17.00;93436.00;;;;7387737;19;20573;-77
2023/07/24 08:21:31;;;;;;;10.40;7.80;;;16.50;99.90;17.00;93425.00;;;;7388830;19;20160;-75
2023/07/24 08:24:07;;;;;;;11.10;7.43;;;16.60;99.90;17.10;93426.00;;;;7387013;19;20151;-77
2023/07/24 08:26:40;;;;;;;11.27;7.28;;;16.60;99.90;17.20;93397.00;;;;7388068;19;20656;-75
2023/07/24 08:29:07;;;;;;;10.68;7.78;;;16.70;99.90;17.20;93378.00;;;;7388470;19;20431;-78
2023/07/24 08:31:41;;;;;;;10.15;7.20;;;16.70;41.00;17.20;93375.00;;;;7388636;19;20156;-75
2023/07/24 08:34:12;;;;;;;7.80;6.85;;;16.80;99.90;17.50;93375.00;;;;7388852;19;20503;-76
2023/07/24 08:36:46;;;;;;;12.07;7.10;;;17.00;87.40;17.60;93363.00;;;;7389148;19;20152;-74
2023/07/24 08:39:13;;;;;;;11.70;7.45;;;17.00;1.00;17.60;93378.00;;;;7386431;19;20581;-74
2023/07/24 08:41:48;;;;;;;9.60;6.70;;;17.10;1.00;17.60;93356.00;;;;7384670;19;20165;-77
2023/07/24 08:44:25;;;;;;;8.65;6.43;;;17.10;1.00;17.60;93363.00;;;;7386738;19;20144;-76
2023/07/24 08:46:59;;;;;;;9.35;6.90;;;17.10;99.90;17.70;93392.00;;;;7383945;19;20144;-76
2023/07/24 08:49:42;;;;;;;9.05;6.55;;;17.20;99.90;17.80;93380.00;;;;7383815;19;20155;-77
2023/07/24 08:52:16;;;;;;;9.82;6.40;;;17.40;99.90;18.10;93388.00;;;;7379878;19;20489;-73
2023/07/24 08:55:04;;;;;;;11.07;7.00;;;17.60;99.90;18.40;93385.00;;;;7384657;19;20560;-76
2023/07/24 08:57:37;;;;;;;7.10;6.40;;;17.90;1.00;18.90;93392.00;;;;7384845;19;20132;-77
2023/07/24 09:00:05;;;;;;;10.93;6.22;;;18.10;99.90;18.80;93358.00;;;;7384209;19;20140;-75
2023/07/24 09:02:35;;;;;;;6.38;5.50;;;18.40;6.00;19.30;93359.00;;;;7385484;19;20210;-73
2023/07/24 09:05:09;;;;;;;9.80;5.97;;;18.80;1.00;19.50;93369.00;;;;7386142;19;20149;-75
2023/07/24 09:07:37;;;;;;;7.45;5.68;;;19.20;99.90;19.50;93375.00;;;;7383611;19;20592;-74
2023/07/24 09:10:11;;;;;;;8.00;5.65;;;19.40;99.90;19.50;93391.00;;;;7384797;19;20645;-74
2023/07/24 09:12:53;;;;;;;7.97;5.90;;;19.60;31.40;19.40;93369.00;;;;7382585;19;20148;-77
2023/07/24 09:15:27;;;;;;;8.90;5.63;;;19.60;1.00;19.30;93393.00;;;;7384837;19;20493;-79
2023/07/24 09:17:55;;;;;;;8.70;5.88;;;19.60;1.00;19.20;93368.00;;;;7381575;19;20151;-76
2023/07/24 09:20:23;;;;;;;7.47;5.70;;;19.70;1.00;19.50;93408.00;;;;7383238;19;20144;-76
2023/07/24 09:22:58;;;;;;;8.15;5.80;;;19.80;99.90;19.50;93395.00;;;;7383234;19;20152;-74
2023/07/24 09:25:38;;;;;;;8.18;5.80;;;19.90;99.90;19.60;93403.00;;;;7381652;19;20604;-78
2023/07/24 09:28:16;;;;;;;7.50;5.93;;;20.00;1.40;19.60;93396.00;;;;7382959;19;21326;-76
2023/07/24 09:30:56;;;;;;;8.05;5.55;;;20.00;99.90;19.50;93371.00;;;;7381636;19;20152;-76
2023/07/24 09:33:43;;;;;;;11.45;6.28;;;20.10;99.90;19.70;93385.00;;;;7383752;19;20204;-78
2023/07/24 09:36:17;;;;;;;7.75;5.85;;;20.00;6.90;19.90;93372.00;;;;7384917;19;20162;-77
2023/07/24 09:39:02;;;;;;;7.35;5.05;;;20.10;29.40;19.70;93399.00;;;;7383964;19;20141;-74
2023/07/24 09:41:43;;;;;;;8.88;5.75;;;20.00;5.70;19.60;93401.00;;;;7383828;19;20604;-74
2023/07/24 09:44:12;;;;;;;7.88;5.38;;;19.80;55.10;19.40;93394.00;;;;7383662;19;20497;-76
2023/07/24 09:46:47;;;;;;;7.15;5.20;;;19.70;76.30;19.50;93423.00;;;;7387686;19;20157;-75
2023/07/24 09:49:28;;;;;;;16.30;6.75;;;19.60;99.90;19.50;93427.00;;;;7383400;19;20145;-75
2023/07/24 09:52:10;;;;;;;7.70;5.57;;;19.60;99.90;19.30;93401.00;;;;7382438;19;20165;-76
2023/07/24 09:54:59;;;;;;;7.60;5.13;;;19.50;99.90;19.30;93444.00;;;;7377842;19;20164;-74
2023/07/24 09:57:34;;;;;;;6.97;5.43;;;19.40;99.90;19.10;93447.00;;;;7383296;19;20148;-76
2023/07/24 10:00:02;;;;;;;8.57;6.10;;;19.10;99.90;19.10;93461.00;;;;7387415;19;20149;-77
2023/07/24 10:02:37;;;;;;;9.00;5.97;;;18.80;99.90;18.90;93446.00;;;;7387224;19;20180;-78
2023/07/24 10:05:12;;;;;;;8.48;5.50;;;18.60;1.00;18.70;93460.00;;;;7385159;19;20156;-75
2023/07/24 10:07:47;;;;;;;11.60;6.30;;;18.30;1.00;18.60;93466.00;;;;7384948;19;20140;-75
2023/07/24 10:10:15;;;;;;;6.97;5.80;;;18.10;99.90;18.50;93458.00;;;;7386673;19;20149;-76
2023/07/24 10:12:57;;;;;;;9.00;5.97;;;17.90;99.90;18.10;93453.00;;;;7384472;19;20152;-77
2023/07/24 10:15:25;;;;;;;6.78;5.40;;;17.70;99.90;18.10;93453.00;;;;7385385;19;20154;-75
2023/07/24 10:18:07;;;;;;;9.80;6.40;;;17.40;99.90;18.00;93467.00;;;;7382853;19;20125;-79
2023/07/24 10:20:42;;;;;;;8.00;5.75;;;17.20;1.00;17.80;93471.00;;;;7384375;19;20133;-74
2023/07/24 10:23:18;;;;;;;9.50;6.38;;;17.00;1.00;17.70;93447.00;;;;7386033;19;20634;-76
2023/07/24 10:25:52;;;;;;;8.73;6.53;;;;;17.50;93467.00;;;;7385581;19;20140;-77
2023/07/24 10:28:39;;;;;;;8.90;6.18;;;;;17.30;93464.00;;;;7387226;19;20221;-76
2023/07/24 10:31:22;;;;;;;9.18;6.18;;;;;17.10;93461.00;;;;7389473;19;20141;-79
2023/07/24 10:34:07;;;;;;;7.78;6.38;;;;;17.10;93474.00;;;;7390357;19;20565;-77
2023/07/24 10:36:36;;;;;;;7.90;6.28;;;;;16.90;93489.00;;;;7392146;19;20151;-76
2023/07/24 10:39:15;;;;;;;7.80;6.72;;;;;16.80;93491.00;;;;7389401;19;20212;-82
2023/07/24 10:41:44;;;;;;;8.35;6.50;;;;;16.70;93486.00;;;;7389953;19;20146;-76
2023/07/24 10:44:18;;;;;;;8.38;6.65;;;;;16.60;93483.00;;;;7388293;19;21109;-76
2023/07/24 10:46:51;;;;;;;9.00;6.70;;;;;16.50;93483.00;;;;7386492;19;20545;-78
2023/07/24 10:49:24;;;;;;;10.07;7.00;;;;;16.60;93468.00;;;;7392063;19;20140;-78
2023/07/24 10:51:56;;;;;;;9.32;6.57;;;;;16.50;93456.00;;;;7389768;19;20546;-80
2023/07/24 10:54:32;;;;;;;13.95;7.05;;;;;16.40;93433.00;;;;7394598;19;20127;-79
2023/07/24 10:57:07;;;;;;;10.13;7.05;;;;;16.30;93422.00;;;;7392716;19;20169;-79
2023/07/24 10:59:41;;;;;;;9.65;6.97;;;;;16.30;93414.00;;;;7392850;19;20144;-80
2023/07/24 11:02:17;;;;;;;9.50;6.97;;;;;16.30;93414.00;;;;7394241;19;20177;-83
2023/07/24 11:04:45;;;;;;;11.25;7.85;;;;;16.30;93415.00;;;;7392320;19;20139;-79
2023/07/24 11:07:21;;;;;;;9.98;6.88;;;;;16.20;93413.00;;;;7391268;19;20124;-81
2023/07/24 11:09:51;;;;;;;10.43;6.93;;;;;16.10;93393.00;;;;7390744;19;20536;-81
2023/07/24 11:12:31;;;;;;;10.27;7.45;;;;;16.20;93384.00;;;;7389606;19;20152;-79
2023/07/24 11:15:14;;;;;;;10.32;6.22;;;;;16.30;93368.00;;;;7390136;19;20208;-79
2023/07/24 11:17:43;;;;;;;10.88;6.65;;;;;16.20;93350.00;;;;7390162;19;20545;-78
2023/07/24 11:20:17;;;;;;;11.32;6.53;;;;;16.10;93326.00;;;;7392480;19;20208;-81
2023/07/24 11:22:52;;;;;;;9.52;6.85;;;;;16.20;93321.00;;;;7391550;19;20128;-78
2023/07/24 11:25:28;;;;;;;7.85;5.70;;;;;16.40;93325.00;;;;7390563;19;20140;-77
2023/07/24 11:28:04;;;;;;;9.77;6.15;;;;;16.80;93315.00;;;;7389173;19;20136;-78
2023/07/24 11:30:43;;;;;;;9.23;6.28;;;;;17.20;93312.00;;;;7388396;19;20473;-78
2023/07/24 11:33:19;;;;;;;9.40;6.57;;;;;17.60;93318.00;;;;7387841;19;20165;-76
2023/07/24 11:35:53;;;;;;;7.28;5.35;;;;;18.00;93311.00;;;;7389654;19;20169;-77
2023/07/24 11:38:21;;;;;;;8.98;6.40;;;;;18.30;93317.00;;;;7389277;19;20498;-75
2023/07/24 11:40:55;;;;;;;7.25;5.60;;;;;18.90;93322.00;;;;7388493;19;20611;-78
2023/07/24 11:43:24;;;;;;;8.23;5.05;;;;;19.20;93334.00;;;;7391466;19;20132;-77
2023/07/24 11:45:59;;;;;;;9.18;5.93;;;;;19.10;93355.00;;;;7387500;19;20157;-76
2023/07/24 11:48:27;;;;;;;6.57;5.13;;;;;18.80;93359.00;;;;7387163;19;20145;-75
2023/07/24 11:51:01;;;;;;;8.23;5.30;;;;;18.90;93369.00;;;;7388736;19;20152;-77
2023/07/24 11:53:31;;;;;;;7.60;5.20;;;;;18.90;93375.00;;;;7384521;19;20486;-75
2023/07/24 11:56:12;;;;;;;6.03;5.00;;;;;18.60;93384.00;;;;7387152;19;20518;-75
2023/07/24 11:58:46;;;;;;;6.35;4.65;;;;;18.00;93384.00;;;;7387673;19;20569;-77
2023/07/24 12:01:20;;;;;;;10.40;5.40;;;;;17.80;93382.00;;;;7385376;19;20176;-77
2023/07/24 12:03:56;;;;;;;5.68;4.70;;;;;17.60;93387.00;;;;7384029;19;20612;-78
2023/07/24 12:06:33;;;;;;;7.80;5.00;;;;;17.50;93374.00;;;;7383111;19;20136;-77
2023/07/24 12:09:08;;;;;;;10.52;4.40;;;;;17.30;93371.00;;;;7387869;19;20172;-78
2023/07/24 12:11:48;;;;;;;6.15;4.95;;;;;17.30;93403.00;;;;7386706;19;20684;-78
2023/07/24 12:14:16;;;;;;;7.75;5.20;;;;;17.10;93407.00;;;;7386832;19;20477;-77
2023/07/24 12:17:09;;;;;;;6.82;5.43;;;;;17.10;93410.00;;;;7388211;19;20169;-79
2023/07/24 12:19:37;;;;;;;7.25;5.60;;;;;16.80;93385.00;;;;7385651;19;20148;-78
2023/07/24 12:22:11;;;;;;;6.43;5.00;;;;;16.80;93372.00;;;;7384411;19;20735;-79